createdAt,value
2023-01-23T00:01:33.458Z,2.26
2023-01-23T00:04:00.906Z,2.17
2023-01-23T00:06:27.893Z,2.16
2023-01-23T00:08:56.412Z,2.00
2023-01-23T00:11:24.304Z,2.09
2023-01-23T00:13:51.348Z,2.15
2023-01-23T00:16:19.092Z,2.16
2023-01-23T00:18:46.002Z,1.99
2023-01-23T00:21:16.488Z,2.00
2023-01-23T00:23:44.425Z,1.91
2023-01-23T00:26:12.210Z,1.78
2023-01-23T00:28:38.912Z,1.94
2023-01-23T00:31:10.119Z,2.02
2023-01-23T00:33:36.864Z,1.92
2023-01-23T00:36:03.642Z,1.83
2023-01-23T00:38:30.285Z,1.87
2023-01-23T00:40:57.015Z,1.89
2023-01-23T00:43:24.335Z,1.81
2023-01-23T00:45:51.390Z,1.86
2023-01-23T00:48:18.072Z,1.65
2023-01-23T00:50:44.798Z,1.70
2023-01-23T00:53:13.054Z,1.60
2023-01-23T00:55:39.971Z,1.63
2023-01-23T00:58:06.827Z,1.75
2023-01-23T01:00:33.548Z,1.73
2023-01-23T01:03:00.278Z,1.78
2023-01-23T01:05:27.363Z,1.90
2023-01-23T01:07:54.056Z,2.01
2023-01-23T01:10:21.210Z,2.05
2023-01-23T01:12:48.146Z,2.00
2023-01-23T01:15:14.917Z,2.07
2023-01-23T01:17:41.565Z,1.92
2023-01-23T01:20:08.696Z,1.98
2023-01-23T01:22:35.358Z,1.87
2023-01-23T01:25:02.068Z,1.86
2023-01-23T01:27:29.062Z,2.00
2023-01-23T01:29:55.896Z,1.90
2023-01-23T01:32:22.618Z,2.13
2023-01-23T01:34:49.260Z,1.95
2023-01-23T01:37:15.962Z,1.87
2023-01-23T01:39:42.660Z,2.05
2023-01-23T01:42:09.367Z,1.98
2023-01-23T01:45:08.764Z,1.90
2023-01-23T01:47:35.464Z,2.21
2023-01-23T01:50:03.419Z,2.02
2023-01-23T01:52:30.083Z,2.06
2023-01-23T01:54:58.788Z,2.07
2023-01-23T01:57:26.419Z,1.98
2023-01-23T01:59:54.522Z,2.01
2023-01-23T02:02:25.678Z,2.01
2023-01-23T02:04:53.131Z,2.07
2023-01-23T02:07:39.605Z,2.00
2023-01-23T02:10:06.748Z,2.11
2023-01-23T02:12:35.212Z,2.01
2023-01-23T02:15:02.935Z,2.14
2023-01-23T02:17:30.788Z,2.03
2023-01-23T02:20:14.195Z,2.13
2023-01-23T02:22:45.720Z,2.03
2023-01-23T02:25:29.803Z,2.20
2023-01-23T02:27:56.553Z,2.06
2023-01-23T02:30:23.596Z,2.12
2023-01-23T02:32:50.341Z,2.32
2023-01-23T02:35:34.849Z,2.19
2023-01-23T02:38:02.769Z,2.09
2023-01-23T02:40:36.811Z,2.27
2023-01-23T02:43:04.279Z,2.14
2023-01-23T02:45:31.483Z,2.12
2023-01-23T02:47:58.196Z,2.11
2023-01-23T02:50:24.871Z,1.99
2023-01-23T02:52:54.811Z,2.08
2023-01-23T02:55:21.935Z,2.16
2023-01-23T02:57:48.662Z,2.16
2023-01-23T03:00:20.694Z,2.24
2023-01-23T03:02:48.652Z,2.39
2023-01-23T03:05:15.353Z,2.22
2023-01-23T03:07:42.997Z,2.26
2023-01-23T03:10:10.035Z,2.13
2023-01-23T03:12:39.870Z,2.30
2023-01-23T03:15:07.091Z,2.20
2023-01-23T03:17:33.842Z,2.15
2023-01-23T03:20:01.348Z,2.14
2023-01-23T03:22:28.089Z,2.18
2023-01-23T03:24:56.168Z,2.20
2023-01-23T03:27:22.827Z,2.22
2023-01-23T03:30:08.192Z,2.13
2023-01-23T03:32:34.962Z,2.18
2023-01-23T03:35:01.627Z,2.24
2023-01-23T03:37:28.286Z,2.35
2023-01-23T03:40:13.654Z,2.33
2023-01-23T03:42:40.385Z,2.42
2023-01-23T03:45:07.446Z,2.43
2023-01-23T03:47:34.412Z,2.48
2023-01-23T03:50:01.154Z,2.66
2023-01-23T03:52:27.817Z,2.95
2023-01-23T03:54:54.490Z,2.56
2023-01-23T03:57:21.237Z,2.54
2023-01-23T03:59:48.148Z,2.37
2023-01-23T04:02:14.966Z,2.42
2023-01-23T04:04:41.664Z,2.44
2023-01-23T04:07:09.141Z,2.34
2023-01-23T04:09:35.822Z,2.42
2023-01-23T04:12:02.489Z,2.24
2023-01-23T04:14:37.364Z,2.25
2023-01-23T04:17:04.985Z,2.23
2023-01-23T04:19:31.690Z,2.13
2023-01-23T04:21:58.440Z,2.40
2023-01-23T04:24:25.113Z,2.36
2023-01-23T04:26:51.790Z,2.30
2023-01-23T04:29:18.562Z,2.42
2023-01-23T04:31:45.450Z,2.41
2023-01-23T04:34:12.248Z,2.50
2023-01-23T04:36:38.927Z,2.50
2023-01-23T04:39:05.634Z,2.58
2023-01-23T04:41:32.917Z,2.52
2023-01-23T04:44:20.404Z,2.51
2023-01-23T04:46:47.688Z,2.40
2023-01-23T04:49:14.389Z,2.48
2023-01-23T04:51:41.165Z,2.46
2023-01-23T04:54:07.798Z,2.42
2023-01-23T04:56:34.470Z,2.43
2023-01-23T04:59:01.134Z,2.53
2023-01-23T05:01:27.876Z,2.37
2023-01-23T05:03:54.596Z,2.60
2023-01-23T05:06:21.252Z,2.52
2023-01-23T05:08:47.934Z,2.53
2023-01-23T05:11:14.648Z,2.62
2023-01-23T05:13:41.395Z,2.76
2023-01-23T05:16:08.247Z,2.62
2023-01-23T05:18:34.964Z,3.19
2023-01-23T05:21:01.630Z,3.41
2023-01-23T05:23:28.305Z,2.95
2023-01-23T05:25:54.972Z,3.01
2023-01-23T05:28:21.660Z,2.76
2023-01-23T05:30:48.415Z,3.05
2023-01-23T05:33:15.214Z,2.93
2023-01-23T05:35:41.938Z,2.97
2023-01-23T05:38:08.609Z,3.07
2023-01-23T05:40:35.299Z,3.06
2023-01-23T05:43:01.944Z,3.24
2023-01-23T05:45:28.581Z,3.16
2023-01-23T05:47:56.028Z,3.24
2023-01-23T05:50:24.653Z,3.10
2023-01-23T05:52:51.291Z,3.17
2023-01-23T05:55:17.995Z,3.22
2023-01-23T05:57:44.673Z,3.20
2023-01-23T06:00:12.364Z,3.17
2023-01-23T06:02:39.068Z,3.11
2023-01-23T06:05:06.091Z,3.14
2023-01-23T06:07:32.747Z,3.11
2023-01-23T06:09:59.416Z,3.19
2023-01-23T06:12:26.139Z,3.10
2023-01-23T06:14:52.819Z,3.19
2023-01-23T06:17:19.487Z,3.09
2023-01-23T06:19:46.253Z,3.03
2023-01-23T06:22:12.917Z,3.21
2023-01-23T06:24:39.560Z,3.20
2023-01-23T06:27:08.529Z,3.18
2023-01-23T06:29:35.691Z,2.98
2023-01-23T06:32:02.511Z,3.01
2023-01-23T06:34:29.191Z,3.26
2023-01-23T06:36:55.907Z,3.26
2023-01-23T06:39:22.578Z,3.37
2023-01-23T06:41:49.238Z,3.23
2023-01-23T06:44:16.007Z,3.11
2023-01-23T06:46:42.685Z,3.19
2023-01-23T06:49:10.141Z,3.21
2023-01-23T06:51:36.926Z,3.20
2023-01-23T06:54:03.673Z,3.36
2023-01-23T06:56:30.363Z,3.31
2023-01-23T06:58:57.067Z,3.41
2023-01-23T07:01:24.273Z,3.31
2023-01-23T07:03:50.950Z,3.08
2023-01-23T07:06:17.946Z,3.41
2023-01-23T07:08:44.658Z,3.46
2023-01-23T07:11:11.926Z,3.37
2023-01-23T07:13:38.596Z,3.50
2023-01-23T07:16:05.831Z,3.40
2023-01-23T07:18:33.351Z,3.53
2023-01-23T07:21:01.019Z,3.48
2023-01-23T07:23:27.734Z,3.62
2023-01-23T07:25:58.773Z,3.89
2023-01-23T07:28:25.490Z,3.87
2023-01-23T07:30:52.392Z,3.82
2023-01-23T07:33:19.271Z,3.92
2023-01-23T07:35:46.118Z,4.45
2023-01-23T07:38:12.782Z,4.72
2023-01-23T07:40:41.303Z,4.69
2023-01-23T07:43:07.968Z,4.57
2023-01-23T07:45:34.721Z,4.26
2023-01-23T07:48:01.362Z,4.04
2023-01-23T07:50:28.036Z,3.76
2023-01-23T07:52:56.792Z,3.63
2023-01-23T07:55:23.616Z,3.75
2023-01-23T07:57:50.307Z,3.61
2023-01-23T08:00:17.309Z,3.60
2023-01-23T08:02:44.034Z,3.69
2023-01-23T08:05:10.757Z,3.68
2023-01-23T08:07:37.510Z,3.74
2023-01-23T08:10:04.330Z,3.85
2023-01-23T08:12:31.067Z,3.93
2023-01-23T08:14:57.785Z,4.20
2023-01-23T08:17:24.465Z,4.04
2023-01-23T08:19:51.166Z,4.22
2023-01-23T08:22:17.860Z,3.95
2023-01-23T08:24:44.593Z,4.10
2023-01-23T08:27:13.569Z,4.31
2023-01-23T08:29:40.249Z,4.45
2023-01-23T08:32:07.002Z,4.45
2023-01-23T08:34:33.693Z,4.46
2023-01-23T08:37:00.402Z,4.42
2023-01-23T08:39:27.130Z,4.59
2023-01-23T08:41:53.812Z,4.76
2023-01-23T08:44:20.475Z,4.61
2023-01-23T08:46:47.181Z,4.49
2023-01-23T08:49:13.874Z,4.41
2023-01-23T08:51:40.612Z,4.47
2023-01-23T08:54:07.392Z,4.39
2023-01-23T08:56:34.095Z,4.53
2023-01-23T08:59:00.849Z,4.63
2023-01-23T09:01:27.632Z,4.94
2023-01-23T09:03:54.481Z,4.71
2023-01-23T09:06:21.687Z,4.80
2023-01-23T09:16:41.005Z,5.23
2023-01-23T09:21:43.016Z,5.29
2023-01-23T09:24:09.715Z,5.58
2023-01-23T09:26:36.468Z,5.76
2023-01-23T09:29:03.279Z,5.77
2023-01-23T09:31:30.265Z,5.52
2023-01-23T09:33:59.986Z,5.88
2023-01-23T09:36:41.818Z,5.67
2023-01-23T09:39:09.611Z,5.77
2023-01-23T09:41:43.618Z,5.79
2023-01-23T09:44:19.220Z,5.45
2023-01-23T09:46:53.896Z,5.22
2023-01-23T09:49:29.048Z,5.30
2023-01-23T09:52:22.262Z,4.97
2023-01-23T09:55:09.924Z,4.76
2023-01-23T09:57:42.878Z,4.75
2023-01-23T10:00:21.148Z,4.87
2023-01-23T10:02:48.145Z,5.19
2023-01-23T10:05:26.603Z,4.96
2023-01-23T10:08:16.532Z,4.82
2023-01-23T10:10:45.337Z,5.02
2023-01-23T10:13:16.604Z,4.84
2023-01-23T10:16:02.362Z,4.89
2023-01-23T10:18:44.156Z,4.90
2023-01-23T10:21:31.041Z,5.09
2023-01-23T10:24:01.116Z,5.32
2023-01-23T10:26:35.101Z,5.19
2023-01-23T10:29:03.709Z,5.28
2023-01-23T10:32:02.555Z,5.07
2023-01-23T10:34:37.942Z,5.56
2023-01-23T10:37:11.819Z,5.55
2023-01-23T10:39:49.277Z,5.94
2023-01-23T10:42:15.946Z,5.88
2023-01-23T10:44:42.631Z,5.53
2023-01-23T10:47:20.391Z,5.67
2023-01-23T10:49:47.310Z,5.41
2023-01-23T10:52:32.885Z,5.32
2023-01-23T10:54:59.670Z,5.26
2023-01-23T10:57:26.955Z,5.47
2023-01-23T11:00:01.563Z,5.57
2023-01-23T11:02:29.739Z,5.87
2023-01-23T11:04:56.561Z,5.36
2023-01-23T11:07:24.391Z,5.41
2023-01-23T11:10:14.395Z,5.57
2023-01-23T11:13:07.141Z,5.45
2023-01-23T11:15:34.005Z,5.55
2023-01-23T11:18:01.380Z,5.56
2023-01-23T11:20:39.211Z,5.67
2023-01-23T11:23:08.657Z,5.51
2023-01-23T11:25:39.397Z,5.79
2023-01-23T11:28:20.526Z,5.77
2023-01-23T11:30:48.045Z,6.14
2023-01-23T11:33:22.155Z,6.30
2023-01-23T11:36:01.215Z,6.21
2023-01-23T11:38:31.348Z,6.17
2023-01-23T11:40:59.182Z,6.14
2023-01-23T11:43:25.856Z,6.49
2023-01-23T11:46:13.145Z,6.32
2023-01-23T11:48:48.731Z,6.78
2023-01-23T11:51:27.732Z,7.24
2023-01-23T11:53:58.942Z,6.85
2023-01-23T11:56:30.657Z,6.94
2023-01-23T11:59:00.374Z,7.51
2023-01-23T12:01:34.313Z,7.63
2023-01-23T12:04:04.107Z,7.54
2023-01-23T12:06:49.756Z,7.18
2023-01-23T12:09:17.300Z,7.06
2023-01-23T12:11:47.992Z,6.91
2023-01-23T12:14:26.861Z,7.27
2023-01-23T12:16:57.017Z,7.02
2023-01-23T12:19:42.184Z,6.96
2023-01-23T12:22:25.815Z,6.82
2023-01-23T12:25:04.845Z,7.09
2023-01-23T12:27:43.579Z,7.25
2023-01-23T12:30:10.359Z,7.14
2023-01-23T12:32:39.847Z,7.50
2023-01-23T12:35:18.935Z,7.81
2023-01-23T12:37:46.432Z,7.59
2023-01-23T12:40:15.839Z,7.97
2023-01-23T12:43:01.393Z,8.03
2023-01-23T12:45:28.411Z,8.09
2023-01-23T12:47:55.101Z,7.66
2023-01-23T12:50:24.108Z,8.07
2023-01-23T12:52:55.704Z,8.48
2023-01-23T12:55:41.079Z,8.59
2023-01-23T12:58:09.436Z,7.85
2023-01-23T13:00:55.338Z,8.19
2023-01-23T13:03:31.259Z,8.28
2023-01-23T13:06:08.027Z,8.19
2023-01-23T13:08:40.518Z,7.31
2023-01-23T13:11:41.465Z,7.12
2023-01-23T13:14:29.137Z,6.84
2023-01-23T13:16:58.836Z,6.78
2023-01-23T13:19:47.675Z,6.45
2023-01-23T13:22:26.964Z,6.92
2023-01-23T13:25:17.769Z,6.70
2023-01-23T13:27:59.960Z,6.45
2023-01-23T13:30:26.850Z,6.15
2023-01-23T13:33:00.815Z,6.31
2023-01-23T13:35:39.796Z,6.66
2023-01-23T13:38:21.847Z,6.76
2023-01-23T13:41:05.945Z,6.67
2023-01-23T13:43:42.929Z,6.92
2023-01-23T13:46:12.912Z,6.68
2023-01-23T14:25:24.685Z,6.75
2023-01-23T14:28:02.008Z,6.65
2023-01-23T14:30:30.474Z,7.14
2023-01-23T14:32:59.025Z,6.93
2023-01-23T14:35:26.853Z,6.90
2023-01-23T14:37:54.249Z,6.62
2023-01-23T14:40:27.816Z,6.35
2023-01-23T14:42:59.590Z,6.66
2023-01-23T14:45:26.260Z,6.66
2023-01-23T14:47:59.832Z,6.44
2023-01-23T14:50:31.438Z,6.65
2023-01-23T14:53:02.282Z,7.33
2023-01-23T14:55:30.132Z,7.32
2023-01-23T14:57:57.883Z,6.92
2023-01-23T15:00:25.118Z,7.03
2023-01-23T15:02:54.437Z,6.82
2023-01-23T15:05:27.044Z,7.11
2023-01-23T15:07:55.227Z,7.01
2023-01-23T15:10:23.685Z,6.92
2023-01-23T15:12:54.869Z,6.56
2023-01-23T15:15:22.429Z,6.78
2023-01-23T15:17:49.422Z,6.87
2023-01-23T15:20:29.317Z,6.35
2023-01-23T15:22:56.106Z,6.42
2023-01-23T15:25:33.851Z,6.68
2023-01-23T15:28:00.564Z,6.60
2023-01-23T15:30:30.972Z,6.14
2023-01-23T15:32:57.922Z,6.33
2023-01-23T15:35:24.900Z,6.36
2023-01-23T15:37:56.147Z,5.88
2023-01-23T15:40:26.105Z,5.85
2023-01-23T15:43:03.038Z,5.58
2023-01-23T15:45:29.822Z,5.70
2023-01-23T15:47:56.475Z,5.79
2023-01-23T15:50:23.173Z,5.78
2023-01-23T15:52:50.992Z,5.40
2023-01-23T15:55:17.776Z,5.77
2023-01-23T15:57:44.438Z,5.97
2023-01-23T16:00:15.236Z,5.73
2023-01-23T16:02:55.087Z,5.89
2023-01-23T16:05:22.872Z,5.98
2023-01-23T16:07:51.140Z,6.22
2023-01-23T16:10:19.049Z,5.97
2023-01-23T16:12:48.962Z,6.15
2023-01-23T16:15:16.372Z,6.45
2023-01-23T16:17:43.341Z,6.51
2023-01-23T16:20:13.878Z,6.21
2023-01-23T16:22:40.555Z,6.44
2023-01-23T16:25:07.733Z,6.53
2023-01-23T16:27:34.379Z,6.45
2023-01-23T16:30:01.080Z,6.12
2023-01-23T16:32:27.858Z,5.99
2023-01-23T16:34:54.624Z,6.11
2023-01-23T16:37:21.331Z,5.85
2023-01-23T16:39:48.039Z,6.12
2023-01-23T16:42:15.988Z,6.34
2023-01-23T16:44:42.682Z,6.50
2023-01-23T16:47:09.361Z,6.22
2023-01-23T16:49:50.982Z,5.87
2023-01-23T16:52:19.243Z,6.54
2023-01-23T16:54:45.980Z,6.68
2023-01-23T16:57:14.397Z,6.33
2023-01-23T16:59:41.089Z,6.43
2023-01-23T17:02:17.034Z,6.74
2023-01-23T17:04:43.705Z,6.49
2023-01-23T17:07:13.045Z,6.57
2023-01-23T17:09:39.689Z,6.73
2023-01-23T17:12:06.564Z,6.70
2023-01-23T17:14:34.558Z,6.57
2023-01-23T17:17:07.306Z,6.10
2023-01-23T17:19:36.423Z,5.79
2023-01-23T17:22:03.755Z,5.78
2023-01-23T17:24:30.449Z,6.40
2023-01-23T17:26:57.118Z,6.65
2023-01-23T17:29:24.818Z,6.28
2023-01-23T17:31:52.555Z,5.98
2023-01-23T17:34:20.699Z,5.88
2023-01-23T17:36:47.388Z,6.49
2023-01-23T17:39:14.076Z,6.36
2023-01-23T17:41:40.761Z,6.03
2023-01-23T17:44:07.428Z,5.91
2023-01-23T17:46:34.593Z,6.17
2023-01-23T17:49:01.284Z,6.19
2023-01-23T17:51:27.937Z,6.02
2023-01-23T17:53:55.239Z,5.96
2023-01-23T17:56:22.011Z,6.03
2023-01-23T17:58:48.677Z,5.76
2023-01-23T18:01:17.687Z,6.08
2023-01-23T18:03:44.792Z,5.97
2023-01-23T18:06:11.481Z,5.73
2023-01-23T18:08:42.225Z,5.87
2023-01-23T18:11:14.959Z,5.92
2023-01-23T18:13:43.937Z,6.00
2023-01-23T18:16:21.073Z,6.15
2023-01-23T18:18:53.224Z,5.95
2023-01-23T18:21:20.213Z,6.14
2023-01-23T18:23:47.258Z,6.46
2023-01-23T18:26:32.606Z,5.97
2023-01-23T18:29:17.711Z,6.00
2023-01-23T18:32:15.227Z,6.44
2023-01-23T18:34:44.030Z,6.29
2023-01-23T18:37:19.398Z,6.76
2023-01-23T18:39:46.450Z,6.99
2023-01-23T18:42:13.489Z,7.02
2023-01-23T18:45:03.376Z,7.01
2023-01-23T18:47:30.149Z,6.96
2023-01-23T18:49:56.890Z,6.72
2023-01-23T18:52:25.620Z,6.75
2023-01-23T18:54:54.654Z,6.93
2023-01-23T18:57:32.773Z,7.04
2023-01-23T19:00:20.100Z,7.09
2023-01-23T19:02:55.456Z,6.88
2023-01-23T19:05:23.924Z,6.86
2023-01-23T19:07:50.974Z,6.80
2023-01-23T19:10:25.266Z,6.73
2023-01-23T19:13:10.333Z,6.75
2023-01-23T19:15:46.212Z,6.66
2023-01-23T19:18:40.102Z,7.20
2023-01-23T19:21:26.896Z,6.99
2023-01-23T19:24:07.034Z,6.52
2023-01-23T19:26:35.006Z,6.82
2023-01-23T19:29:19.336Z,6.70
2023-01-23T19:32:03.020Z,6.83
2023-01-23T19:34:30.600Z,7.00
2023-01-23T19:36:57.233Z,7.06
2023-01-23T19:39:23.889Z,7.35
2023-01-23T19:41:50.747Z,7.13
2023-01-23T19:44:18.361Z,7.05
2023-01-23T19:46:45.135Z,7.18
2023-01-23T19:49:11.920Z,7.22
2023-01-23T19:51:38.908Z,7.08
2023-01-23T19:54:09.469Z,7.07
2023-01-23T19:56:36.208Z,7.23
2023-01-23T19:59:02.876Z,7.14
2023-01-23T20:01:38.926Z,7.16
2023-01-23T20:04:06.339Z,7.14
2023-01-23T20:06:38.919Z,7.12
2023-01-23T20:09:05.609Z,7.23
2023-01-23T20:11:32.312Z,7.10
2023-01-23T20:13:58.956Z,7.11
2023-01-23T20:16:26.526Z,6.77
2023-01-23T20:18:53.782Z,6.41
2023-01-23T20:21:21.303Z,6.77
2023-01-23T20:23:48.160Z,6.78
2023-01-23T20:26:15.328Z,6.57
2023-01-23T20:28:42.272Z,6.72
2023-01-23T20:31:10.275Z,7.18
2023-01-23T20:33:37.330Z,7.07
2023-01-23T20:36:04.574Z,7.23
2023-01-23T20:38:31.391Z,7.05
2023-01-23T20:41:04.875Z,7.40
2023-01-23T20:43:31.606Z,7.09
2023-01-23T20:45:58.278Z,7.34
2023-01-23T20:48:25.003Z,7.11
2023-01-23T20:50:55.195Z,7.38
2023-01-23T20:53:31.052Z,7.38
2023-01-23T20:55:57.714Z,7.22
2023-01-23T20:58:42.839Z,6.99
2023-01-23T21:01:09.762Z,7.32
2023-01-23T21:03:36.520Z,7.15
2023-01-23T21:06:03.488Z,7.31
2023-01-23T21:08:30.128Z,6.87
2023-01-23T21:10:56.809Z,7.12
2023-01-23T21:13:23.503Z,7.10
2023-01-23T21:16:00.064Z,7.16
2023-01-23T21:18:26.934Z,7.14
2023-01-23T21:20:53.638Z,7.13
2023-01-23T21:23:20.312Z,7.19
2023-01-23T21:25:46.981Z,7.07
2023-01-23T21:28:13.630Z,7.21
2023-01-23T21:30:40.499Z,6.92
2023-01-23T21:33:07.377Z,7.21
2023-01-23T21:35:34.042Z,7.31
2023-01-23T21:38:02.035Z,6.82
2023-01-23T21:40:28.713Z,7.22
2023-01-23T21:42:55.394Z,7.56
2023-01-23T21:45:22.311Z,7.27
2023-01-23T21:47:49.238Z,7.06
2023-01-23T21:50:17.857Z,7.11
2023-01-23T21:52:44.983Z,7.19
2023-01-23T21:55:11.651Z,6.93
2023-01-23T21:57:38.300Z,7.24
2023-01-23T22:00:23.668Z,6.99
2023-01-23T22:02:50.377Z,6.74
2023-01-23T22:05:17.167Z,6.71
2023-01-23T22:07:43.828Z,6.57
2023-01-23T22:10:10.564Z,6.70
2023-01-23T22:12:37.230Z,6.85
2023-01-23T22:15:04.251Z,6.92
2023-01-23T22:17:30.997Z,7.37
2023-01-23T22:19:57.721Z,6.98
2023-01-23T22:22:24.495Z,7.09
2023-01-23T22:24:51.141Z,7.42
2023-01-23T22:27:17.830Z,7.22
2023-01-23T22:29:44.494Z,7.22
2023-01-23T22:32:11.301Z,7.33
2023-01-23T22:34:38.038Z,6.89
2023-01-23T22:37:04.719Z,6.08
2023-01-23T22:39:31.455Z,6.46
2023-01-23T22:41:58.147Z,6.56
2023-01-23T22:44:25.476Z,7.28
2023-01-23T22:46:52.169Z,7.40
2023-01-23T22:49:18.940Z,7.51
2023-01-23T22:51:45.629Z,7.73
2023-01-23T22:54:12.352Z,7.61
2023-01-23T22:56:39.018Z,7.83
2023-01-23T22:59:05.719Z,8.31
2023-01-23T23:01:32.412Z,7.85
2023-01-23T23:03:59.855Z,7.71
2023-01-23T23:06:26.680Z,7.67
2023-01-23T23:08:53.465Z,7.80
2023-01-23T23:11:21.449Z,7.78
2023-01-23T23:13:48.154Z,6.76
2023-01-23T23:16:32.657Z,7.12
2023-01-23T23:19:00.729Z,7.03
2023-01-23T23:21:31.742Z,7.40
2023-01-23T23:23:58.842Z,7.10
2023-01-23T23:26:26.715Z,6.83
2023-01-23T23:28:53.927Z,6.94
2023-01-23T23:31:20.730Z,7.14
2023-01-23T23:33:47.507Z,7.20
2023-01-23T23:36:14.207Z,7.21
2023-01-23T23:38:40.931Z,6.87
2023-01-23T23:41:08.471Z,7.05
2023-01-23T23:43:35.292Z,7.07
2023-01-23T23:46:02.915Z,7.20
2023-01-23T23:48:30.192Z,6.64
2023-01-23T23:50:58.980Z,7.25
2023-01-23T23:53:25.650Z,6.11
2023-01-23T23:55:52.315Z,6.75
2023-01-23T23:58:19.017Z,6.96
